Time;durP1;ratioP1;P1;durP2;ratioP2;P2;SDS_P1;SDS_P2;PMS_P1;PMS_P2;Temp;Humidity;BMP_temperature;BMP_pressure;BME280_temperature;BME280_humidity;BME280_pressure;Samples;Min_cycle;Max_cycle;Signal;HPM_P1;HPM_P2
2021/04/02 00:00:57;;;;;;;6.60;4.00;;;;;;;-0.04;84.69;100000.45;1797215;78;21175;-70
2021/04/02 00:03:33;;;;;;;6.83;4.00;;;;;;;-0.08;84.65;99997.48;1795512;78;21088;-71
2021/04/02 00:06:01;;;;;;;7.17;4.08;;;;;;;-0.09;84.78;99995.31;1796046;78;21234;-71
2021/04/02 00:08:28;;;;;;;5.70;4.67;;;;;;;-0.09;84.83;99999.59;1800779;78;21101;-71
2021/04/02 00:11:03;;;;;;;5.35;4.03;;;;;;;-0.10;84.77;99992.77;1795187;78;21272;-71
2021/04/02 00:13:34;;;;;;;4.20;3.65;;;;;;;-0.08;84.77;99991.06;1795946;78;21180;-71
2021/04/02 00:16:02;;;;;;;4.65;3.50;;;;;;;-0.16;84.60;99989.77;1805568;78;21059;-70
2021/04/02 00:18:29;;;;;;;;;;;;;;;-0.18;84.75;99980.35;1798729;78;21222;-71
2021/04/02 00:21:00;;;;;;;4.90;3.42;;;;;;;-0.24;84.74;99975.64;1796203;78;20242;-71
2021/04/02 00:23:27;;;;;;;5.83;4.33;;;;;;;-0.24;84.77;99976.92;1797580;78;21195;-71
2021/04/02 00:25:56;;;;;;;4.12;3.60;;;;;;;-0.17;84.91;99965.37;1800582;78;21351;-70
2021/04/02 00:28:23;;;;;;;5.42;4.08;;;;;;;-0.08;84.94;99974.38;1802637;78;21565;-71
2021/04/02 00:30:56;;;;;;;4.17;2.98;;;;;;;-0.02;84.86;99971.80;1798643;78;21155;-71
2021/04/02 00:33:27;;;;;;;5.05;3.30;;;;;;;0.06;84.87;99988.06;1798327;78;20990;-70
2021/04/02 00:35:56;;;;;;;7.80;4.03;;;;;;;-0.01;84.48;99974.78;1801483;78;22196;-70
2021/04/02 00:38:23;;;;;;;4.58;3.90;;;;;;;-0.05;84.62;99970.52;1795850;78;21175;-71
2021/04/02 00:40:55;;;;;;;6.60;3.95;;;;;;;-0.01;84.70;99979.92;1799836;78;21151;-71
2021/04/02 00:43:33;;;;;;;5.03;4.00;;;;;;;0.03;84.74;99967.53;1800304;78;21196;-71
2021/04/02 00:45:59;;;;;;;;;;;;;;;0.09;84.72;99966.67;1798163;78;21582;-71
2021/04/02 00:48:27;;;;;;;4.62;3.72;;;;;;;0.12;84.75;99973.08;1803361;78;21203;-70
2021/04/02 00:50:58;;;;;;;5.12;3.60;;;;;;;0.13;84.59;99974.34;1796575;78;21060;-71
2021/04/02 00:53:30;;;;;;;7.05;3.40;;;;;;;0.11;84.47;99982.50;1799795;77;21137;-71
2021/04/02 00:55:59;;;;;;;4.50;3.50;;;;;;;0.09;84.52;99975.22;1799451;78;21036;-70
2021/04/02 00:58:30;;;;;;;3.58;3.25;;;;;;;0.09;84.50;99971.37;1796576;78;21538;-71
2021/04/02 01:00:57;;;;;;;6.05;3.30;;;;;;;0.05;84.42;99978.63;1797815;78;21197;-70
2021/04/02 01:03:24;;;;;;;3.70;3.20;;;;;;;0.04;84.46;99973.08;1796959;78;21252;-71
2021/04/02 01:05:54;;;;;;;4.30;3.12;;;;;;;0.03;84.49;99979.08;1796496;78;21175;-70
2021/04/02 01:08:24;;;;;;;2.77;2.20;;;;;;;-0.11;84.13;99975.63;1767559;78;21621;-71
2021/04/02 01:10:54;;;;;;;4.60;2.77;;;;;;;-0.36;84.08;99980.77;1797808;78;21176;-70
2021/04/02 01:13:55;;;;;;;3.05;2.35;;;;;;;-0.51;84.30;99983.30;1798383;78;21261;-71
2021/04/02 01:16:26;;;;;;;3.30;2.72;;;;;;;-0.60;84.50;99980.72;1797722;78;21097;-71
2021/04/02 01:19:37;;;;;;;3.80;3.12;;;;;;;-0.64;84.60;99985.40;1795424;78;21191;-71
2021/04/02 01:22:18;;;;;;;3.42;2.60;;;;;;;-0.58;84.87;99985.44;1802709;78;21081;-70
2021/04/02 01:25:06;;;;;;;8.03;3.15;;;;;;;-0.47;84.94;99984.59;1795340;78;20997;-69
2021/04/02 01:27:50;;;;;;;3.65;2.60;;;;;;;-0.40;84.87;99989.30;1701283;81;22191;-70
2021/04/02 01:30:17;;;;;;;4.05;2.80;;;;;;;-0.39;84.75;99987.59;1706549;81;21765;-71
2021/04/02 01:32:47;;;;;;;;;;;;;;;-0.38;84.74;99976.05;1710930;81;21187;-71
2021/04/02 01:35:34;;;;;;;3.80;3.50;;;;;;;-0.38;84.70;99974.77;1708281;81;20326;-71
2021/04/02 01:38:19;;;;;;;3.83;3.30;;;;;;;-0.34;84.78;99973.91;1865203;76;22344;-70
2021/04/02 01:40:53;;;;;;;4.50;2.47;;;;;;;-0.39;84.71;99982.05;1832695;77;21017;-71
2021/04/02 01:43:24;;;;;;;3.95;3.00;;;;;;;-0.39;84.75;99984.62;1832730;77;21387;-70
2021/04/02 01:45:53;;;;;;;4.00;2.92;;;;;;;-0.55;84.45;99981.59;1836185;77;21017;-70
2021/04/02 01:48:22;;;;;;;4.05;2.95;;;;;;;-0.69;84.56;99987.54;1835103;77;20998;-71
2021/04/02 01:50:52;;;;;;;4.80;3.10;;;;;;;-0.74;84.68;99981.54;1834841;77;21128;-71
2021/04/02 01:53:24;;;;;;;4.28;3.10;;;;;;;-0.74;84.83;99989.23;1826564;77;21077;-70
2021/04/02 01:55:53;;;;;;;4.28;3.10;;;;;;;-0.77;85.09;99985.37;1832338;77;21194;-70
2021/04/02 01:58:22;;;;;;;3.72;3.33;;;;;;;-0.85;85.14;99990.91;1830513;77;21036;-71
2021/04/02 02:00:56;;;;;;;3.05;2.70;;;;;;;-0.83;85.16;99992.20;1831447;77;21701;-70
2021/04/02 02:03:25;;;;;;;5.37;3.37;;;;;;;-0.78;85.21;99993.08;1834281;76;21026;-70
2021/04/02 02:05:56;;;;;;;4.08;3.65;;;;;;;-0.79;85.32;99986.22;1832198;77;21773;-71
2021/04/02 02:08:25;;;;;;;4.62;4.10;;;;;;;-0.80;85.54;99980.25;1827631;77;22157;-70
2021/04/02 02:10:57;;;;;;;5.05;4.10;;;;;;;-0.81;85.31;99970.85;1800055;78;20981;-70
2021/04/02 02:13:25;;;;;;;5.67;4.42;;;;;;;-0.76;85.44;99970.41;1775198;79;21195;-71
2021/04/02 02:15:53;;;;;;;6.45;5.78;;;;;;;-0.75;85.34;99973.42;1799754;78;26773;-70
2021/04/02 02:18:24;;;;;;;8.33;7.55;;;;;;;-0.72;85.34;99961.89;1795317;78;21242;-71
2021/04/02 02:20:52;;;;;;;8.00;6.45;;;;;;;-0.62;85.48;99955.49;1781290;79;21193;-71
2021/04/02 02:23:19;;;;;;;10.50;8.35;;;;;;;-0.53;85.38;99955.09;1794741;78;21045;-71
2021/04/02 02:25:47;;;;;;;10.60;9.48;;;;;;;-0.45;85.31;99947.39;1774773;79;21006;-71
2021/04/02 02:28:14;;;;;;;11.20;8.73;;;;;;;-0.39;85.32;99942.29;1795605;78;27191;-70
2021/04/02 02:30:44;;;;;;;10.13;9.08;;;;;;;-0.32;85.26;99942.70;1796747;78;21133;-70
2021/04/02 02:33:13;;;;;;;10.30;8.78;;;;;;;-0.29;85.24;99940.13;1793090;78;22289;-71
2021/04/02 02:35:41;;;;;;;10.15;8.50;;;;;;;-0.20;85.28;99937.14;1795118;78;21009;-71
2021/04/02 02:38:08;;;;;;;;;;;;;;;-0.22;85.06;99933.31;1801975;78;21180;-70
2021/04/02 02:40:38;;;;;;;9.38;8.43;;;;;;;-0.20;85.20;99930.30;1792684;78;20613;-71
2021/04/02 02:43:06;;;;;;;10.05;9.00;;;;;;;-0.18;85.14;99932.87;1795203;78;22106;-71
2021/04/02 02:45:35;;;;;;;11.68;9.23;;;;;;;-0.19;85.14;99930.74;1796295;78;22169;-71
2021/04/02 02:48:03;;;;;;;9.68;8.68;;;;;;;-0.14;85.28;99930.31;1792955;78;21562;-71
2021/04/02 02:50:33;;;;;;;10.05;8.83;;;;;;;-0.12;85.15;99936.28;1790515;78;21571;-71
2021/04/02 02:53:02;;;;;;;12.15;8.33;;;;;;;-0.11;85.23;99929.43;1796808;78;21147;-71
2021/04/02 02:55:32;;;;;;;13.35;10.58;;;;;;;-0.05;85.37;99921.75;1791323;78;21190;-71
2021/04/02 02:58:01;;;;;;;10.65;8.85;;;;;;;0.00;85.37;99922.61;1792639;78;21200;-71
2021/04/02 03:00:32;;;;;;;12.50;9.00;;;;;;;0.06;85.35;99914.89;1796440;78;21019;-71
2021/04/02 03:03:02;;;;;;;12.13;8.93;;;;;;;0.10;85.36;99914.02;1796938;78;21163;-70
2021/04/02 03:05:30;;;;;;;8.80;7.83;;;;;;;0.17;85.30;99914.88;1796060;78;21077;-71
2021/04/02 03:08:03;;;;;;;10.75;7.28;;;;;;;0.17;85.23;99910.59;1792295;78;21560;-71
2021/04/02 03:10:34;;;;;;;12.30;7.53;;;;;;;0.19;85.30;99915.27;1778633;78;22045;-71
2021/04/02 03:13:02;;;;;;;9.08;7.30;;;;;;;0.23;85.25;99907.59;1773133;79;21191;-70
2021/04/02 03:15:32;;;;;;;9.73;7.50;;;;;;;0.23;85.27;99908.87;1766954;79;21191;-70
2021/04/02 03:18:09;;;;;;;13.62;7.08;;;;;;;0.23;85.21;99901.17;1736878;80;21199;-70
2021/04/02 03:20:39;;;;;;;7.50;6.20;;;;;;;0.27;85.26;99902.86;1771790;80;21175;-71
2021/04/02 03:23:08;;;;;;;7.15;6.28;;;;;;;0.27;85.16;99897.72;1768217;79;21212;-71
2021/04/02 03:25:38;;;;;;;8.50;6.08;;;;;;;0.29;85.20;99905.84;1770823;80;21171;-70
2021/04/02 03:28:06;;;;;;;7.87;5.75;;;;;;;0.30;85.15;99905.41;1768007;79;21187;-70
2021/04/02 03:30:34;;;;;;;7.28;5.08;;;;;;;0.31;85.16;99901.97;1767725;80;21100;-70
2021/04/02 03:33:30;;;;;;;5.45;4.15;;;;;;;0.31;85.12;99896.84;1774122;80;21177;-70
2021/04/02 03:36:02;;;;;;;4.58;4.15;;;;;;;0.28;85.02;99886.58;1770808;79;21291;-71
2021/04/02 03:38:39;;;;;;;7.75;3.92;;;;;;;0.23;84.92;99885.77;1768297;80;21089;-71
2021/04/02 03:41:14;;;;;;;7.87;4.65;;;;;;;0.14;84.88;99891.34;1761877;80;21176;-71
2021/04/02 03:43:43;;;;;;;6.03;4.28;;;;;;;0.09;85.00;99886.64;1760630;80;21239;-70
2021/04/02 03:46:11;;;;;;;6.33;4.58;;;;;;;0.09;85.19;99885.36;1732236;80;21217;-71
2021/04/02 03:48:40;;;;;;;;;;;;;;;0.08;85.19;99890.05;1762552;80;21645;-71
2021/04/02 03:51:08;;;;;;;4.22;3.52;;;;;;;0.05;85.05;99886.20;1763335;80;20211;-71
2021/04/02 03:53:46;;;;;;;4.37;3.80;;;;;;;-0.04;84.94;99892.65;1762353;80;21622;-70
2021/04/02 03:56:17;;;;;;;4.17;3.70;;;;;;;-0.09;85.06;99884.09;1752222;80;21633;-71
2021/04/02 03:58:46;;;;;;;4.75;3.72;;;;;;;-0.12;85.11;99877.69;1759063;80;21224;-71
2021/04/02 04:01:19;;;;;;;7.17;4.17;;;;;;;-0.14;85.17;99878.98;1765650;80;21248;-71
2021/04/02 04:03:49;;;;;;;5.37;4.00;;;;;;;-0.17;85.12;99874.27;1759799;80;21181;-72
2021/04/02 04:06:21;;;;;;;4.75;3.83;;;;;;;-0.23;85.13;99869.56;1754552;80;21183;-71
2021/04/02 04:08:56;;;;;;;7.53;4.60;;;;;;;-0.24;85.30;99865.30;1751798;80;21240;-71
2021/04/02 04:11:32;;;;;;;5.80;3.98;;;;;;;-0.20;85.25;99864.85;1838177;77;22852;-70
2021/04/02 04:14:01;;;;;;;3.95;3.42;;;;;;;-0.27;85.21;99856.32;1742507;80;21100;-70
2021/04/02 04:16:28;;;;;;;4.20;3.33;;;;;;;-0.26;85.22;99859.30;1732849;82;22387;-70
2021/04/02 04:19:01;;;;;;;6.03;3.50;;;;;;;-0.23;85.24;99861.02;1741038;81;21010;-70
2021/04/02 04:21:36;;;;;;;5.00;4.00;;;;;;;-0.23;85.26;99858.01;1742764;81;21685;-70
2021/04/02 04:24:06;;;;;;;8.90;4.22;;;;;;;-0.23;85.22;99858.01;1740991;80;21622;-70
2021/04/02 04:26:35;;;;;;;5.15;3.50;;;;;;;-0.21;85.25;99857.17;1770606;80;21086;-71
2021/04/02 04:29:04;;;;;;;7.90;3.72;;;;;;;-0.18;85.28;99862.30;1744304;80;22178;-71
2021/04/02 04:31:32;;;;;;;6.40;4.12;;;;;;;-0.17;85.29;99852.45;1750277;81;21071;-70
2021/04/02 04:34:01;;;;;;;4.95;3.70;;;;;;;-0.18;85.21;99848.19;1735750;80;21285;-71
2021/04/02 04:36:30;;;;;;;4.95;3.55;;;;;;;-0.20;85.18;99845.61;1744698;80;21147;-71
2021/04/02 04:39:00;;;;;;;5.67;5.08;;;;;;;-0.18;85.20;99840.48;1750663;81;21182;-70
2021/04/02 04:41:28;;;;;;;4.83;4.00;;;;;;;-0.19;85.21;99850.34;1732242;81;22165;-70
2021/04/02 04:43:57;;;;;;;4.00;3.62;;;;;;;-0.16;85.25;99836.22;1751334;79;21038;-70
2021/04/02 04:46:24;;;;;;;4.72;3.70;;;;;;;-0.14;85.20;99833.19;1733368;81;21187;-70
2021/04/02 04:48:51;;;;;;;4.50;4.10;;;;;;;-0.14;85.12;99839.61;1748196;81;21197;-71
2021/04/02 04:51:21;;;;;;;7.92;4.53;;;;;;;-0.14;85.14;99833.19;1743094;81;21591;-70
2021/04/02 04:53:52;;;;;;;4.45;4.00;;;;;;;-0.15;85.16;99839.19;1763662;79;21407;-70
2021/04/02 04:56:20;;;;;;;8.40;4.67;;;;;;;-0.10;85.18;99829.78;1737104;82;21227;-71
2021/04/02 04:58:51;;;;;;;6.65;4.65;;;;;;;-0.11;85.11;99831.90;1737764;80;21228;-71
2021/04/02 05:01:20;;;;;;;7.58;4.72;;;;;;;-0.09;85.10;99831.48;1707231;82;21156;-71
2021/04/02 05:03:48;;;;;;;4.33;3.75;;;;;;;-0.05;85.12;99830.63;1736805;81;21206;-70
2021/04/02 05:06:15;;;;;;;;;;;;;;;-0.04;84.93;99828.47;1737355;82;22403;-71
2021/04/02 05:08:49;;;;;;;4.53;3.83;;;;;;;-0.11;84.93;99827.64;1719519;82;20144;-71
2021/04/02 05:11:19;;;;;;;6.80;4.10;;;;;;;-0.10;85.04;99815.66;1732016;81;21095;-71
2021/04/02 05:13:49;;;;;;;6.80;3.90;;;;;;;0.00;85.11;99818.64;1733685;82;21594;-71
2021/04/02 05:16:21;;;;;;;4.53;3.50;;;;;;;0.09;85.04;99822.45;1729284;82;21158;-71
2021/04/02 05:21:28;;;;;;;5.53;4.90;;;;;;;0.23;84.98;99811.29;1793103;78;22631;-70
2021/04/02 05:23:56;;;;;;;4.72;4.25;;;;;;;0.25;85.05;99815.97;1766960;79;21052;-69
2021/04/02 05:26:23;;;;;;;4.80;3.55;;;;;;;0.36;85.05;99818.06;1774377;80;21319;-70
2021/04/02 05:28:50;;;;;;;4.17;3.77;;;;;;;0.46;85.16;99812.03;1764629;80;21582;-70
2021/04/02 05:31:17;;;;;;;8.15;3.80;;;;;;;0.50;84.96;99813.70;1767464;80;21014;-70
2021/04/02 05:33:44;;;;;;;6.55;3.60;;;;;;;0.57;84.90;99809.41;1768915;80;21345;-70
2021/04/02 05:36:11;;;;;;;5.35;4.03;;;;;;;0.61;84.64;99804.23;1767186;79;21198;-70
2021/04/02 05:38:38;;;;;;;8.90;4.75;;;;;;;0.62;84.67;99804.67;1764141;80;21261;-71
2021/04/02 05:41:16;;;;;;;4.55;3.77;;;;;;;0.64;84.76;99800.79;1766005;80;21123;-71
2021/04/02 05:43:56;;;;;;;7.83;4.25;;;;;;;0.63;84.64;99799.94;1760864;80;21177;-71
2021/04/02 05:46:26;;;;;;;6.30;4.25;;;;;;;0.69;84.78;99790.50;1769916;80;21162;-71
2021/04/02 05:49:07;;;;;;;6.45;4.10;;;;;;;0.88;84.92;99794.66;1763932;79;21176;-71
2021/04/02 05:51:37;;;;;;;5.87;3.98;;;;;;;1.42;85.44;99783.94;1774550;80;21217;-72
2021/04/02 05:54:08;;;;;;;7.45;4.03;;;;;;;1.82;84.84;99781.84;1768612;80;21149;-71
2021/04/02 05:56:37;;;;;;;4.50;3.75;;;;;;;2.19;84.57;99783.99;1773155;80;21554;-71
2021/04/02 05:59:07;;;;;;;4.35;3.35;;;;;;;2.60;84.32;99785.16;1768557;80;21247;-73
2021/04/02 06:01:34;;;;;;;6.62;3.52;;;;;;;3.11;84.29;99772.39;1764551;79;22030;-73
2021/04/02 06:04:02;;;;;;;5.35;3.50;;;;;;;3.51;83.54;99775.14;1767474;78;22148;-73
2021/04/02 06:06:29;;;;;;;4.87;3.40;;;;;;;4.28;84.21;99780.56;1767640;80;21186;-74
2021/04/02 06:08:57;;;;;;;;;;;;;;;4.89;83.30;99768.88;1767782;79;21163;-74
2021/04/02 06:11:24;;;;;;;3.98;3.25;;;;;;;5.49;83.21;99768.28;1771210;79;20194;-72
2021/04/02 06:13:51;;;;;;;3.08;2.42;;;;;;;5.94;82.54;99765.39;1765636;79;21874;-71
2021/04/02 06:16:18;;;;;;;3.17;2.58;;;;;;;6.56;82.52;99766.22;1764700;80;21212;-71
2021/04/02 06:18:45;;;;;;;2.98;2.30;;;;;;;7.08;82.26;99761.98;1770231;80;28516;-72
2021/04/02 06:21:14;;;;;;;2.85;2.10;;;;;;;7.61;81.98;99759.34;1767268;80;21214;-72
2021/04/02 06:23:42;;;;;;;3.80;2.15;;;;;;;8.06;81.49;99762.05;1767056;79;21178;-72
2021/04/02 06:26:11;;;;;;;3.47;2.30;;;;;;;8.39;81.03;99752.65;1771340;79;21206;-72
2021/04/02 06:28:41;;;;;;;3.72;2.65;;;;;;;8.50;80.81;99756.14;1768241;80;23067;-72
2021/04/02 06:31:12;;;;;;;3.90;2.50;;;;;;;8.35;80.79;99748.91;1769982;78;21112;-71
2021/04/02 06:33:47;;;;;;;3.12;2.62;;;;;;;8.23;80.94;99744.56;1768622;80;21650;-71
2021/04/02 06:36:20;;;;;;;4.40;2.85;;;;;;;8.01;80.75;99752.72;1756998;79;21571;-72
2021/04/02 06:38:55;;;;;;;4.25;3.70;;;;;;;7.63;80.38;99749.75;1759471;80;21192;-72
2021/04/02 06:41:25;;;;;;;5.85;4.05;;;;;;;7.08;80.72;99759.38;1764173;80;22098;-72
2021/04/02 06:43:57;;;;;;;4.92;4.22;;;;;;;6.64;80.83;99757.30;1762962;80;21159;-72
2021/04/02 06:46:33;;;;;;;7.50;5.03;;;;;;;6.28;81.12;99750.17;1761789;80;21180;-72
2021/04/02 06:49:19;;;;;;;5.95;4.83;;;;;;;5.97;81.50;99751.05;1761668;79;21222;-72
2021/04/02 06:51:50;;;;;;;4.80;4.30;;;;;;;5.90;81.36;99765.47;1762094;80;21220;-72
2021/04/02 06:54:21;;;;;;;7.00;5.05;;;;;;;5.84;82.17;99761.30;1768526;79;21451;-72
2021/04/02 06:57:08;;;;;;;6.12;4.58;;;;;;;5.82;82.29;99752.71;1741257;80;20986;-71
2021/04/02 06:59:36;;;;;;;5.87;4.67;;;;;;;5.92;82.50;99751.58;1766873;80;21270;-71
2021/04/02 07:02:05;;;;;;;5.80;4.03;;;;;;;6.07;82.49;99745.14;1769182;79;21131;-72
2021/04/02 07:04:34;;;;;;;6.35;4.50;;;;;;;6.19;82.35;99746.52;1760083;80;21250;-72
2021/04/02 07:07:04;;;;;;;5.65;4.37;;;;;;;6.32;82.47;99745.28;1762373;80;21222;-72
2021/04/02 07:09:33;;;;;;;6.60;4.47;;;;;;;6.47;82.40;99742.25;1768843;80;21108;-71
2021/04/02 07:12:03;;;;;;;7.62;4.60;;;;;;;6.69;82.67;99739.85;1737427;81;21155;-71
2021/04/02 07:14:32;;;;;;;5.95;4.45;;;;;;;6.89;82.66;99736.63;1764908;79;21013;-71
2021/04/02 07:17:00;;;;;;;3.87;3.27;;;;;;;7.10;82.20;99736.82;1767081;80;21163;-72
2021/04/02 07:19:28;;;;;;;4.58;3.25;;;;;;;6.86;81.10;99740.62;1764118;80;21140;-72
2021/04/02 07:21:59;;;;;;;4.65;3.62;;;;;;;6.53;81.30;99742.97;1761760;80;21184;-72
2021/04/02 07:24:26;;;;;;;8.70;3.95;;;;;;;6.62;82.29;99738.33;1770468;79;21047;-72
2021/04/02 07:26:53;;;;;;;;;;;;;;;6.86;82.43;99739.32;1777215;80;22065;-72
2021/04/02 07:29:23;;;;;;;4.72;3.58;;;;;;;6.90;81.63;99733.12;1772054;80;20217;-72
2021/04/02 07:31:52;;;;;;;4.37;3.15;;;;;;;6.76;81.76;99737.90;1768459;80;21199;-72
2021/04/02 07:34:19;;;;;;;4.65;3.42;;;;;;;6.66;81.77;99730.84;1738161;80;21040;-72
2021/04/02 07:36:48;;;;;;;5.50;3.70;;;;;;;6.54;81.82;99736.41;1770589;79;21211;-71
2021/04/02 07:39:19;;;;;;;3.33;2.92;;;;;;;6.46;82.06;99732.75;1774630;79;21213;-70
2021/04/02 07:41:52;;;;;;;4.90;2.98;;;;;;;6.28;81.42;99726.37;1776442;80;21137;-72
2021/04/02 07:44:21;;;;;;;3.85;3.25;;;;;;;6.31;82.27;99722.84;1773867;80;21248;-72
2021/04/02 07:47:07;;;;;;;4.42;3.55;;;;;;;6.47;82.06;99726.69;1768897;80;21179;-72
2021/04/02 07:49:54;;;;;;;3.62;3.15;;;;;;;6.52;82.26;99716.60;1763486;79;21290;-72
2021/04/02 07:52:39;;;;;;;5.67;3.40;;;;;;;6.86;83.16;99719.86;1719641;81;21266;-73
2021/04/02 07:55:17;;;;;;;5.80;3.20;;;;;;;7.17;82.72;99715.80;1718849;81;21226;-80
2021/04/02 07:58:07;;;;;;;4.28;3.10;;;;;;;7.28;82.03;99708.95;1825781;76;22733;-79
2021/04/02 08:00:35;;;;;;;5.47;3.35;;;;;;;7.29;82.31;99709.34;1801209;78;21089;-78
2021/04/02 08:03:16;;;;;;;4.85;3.20;;;;;;;7.49;82.50;99707.81;1801138;78;21351;-79
2021/04/02 08:06:07;;;;;;;3.70;2.80;;;;;;;7.72;82.42;99706.98;1799002;77;21025;-79
2021/04/02 08:08:47;;;;;;;3.42;2.90;;;;;;;7.79;81.52;99700.69;1743623;80;21399;-77
2021/04/02 08:11:37;;;;;;;5.50;3.10;;;;;;;7.73;81.37;99704.34;1744971;81;21263;-78
2021/04/02 08:14:09;;;;;;;8.83;3.17;;;;;;;7.91;82.42;99688.98;1746878;81;21221;-77
2021/04/02 08:16:54;;;;;;;5.95;3.00;;;;;;;8.04;82.11;99689.77;1728381;81;21286;-76
2021/04/02 08:19:39;;;;;;;5.42;3.08;;;;;;;8.16;82.27;99689.76;1749173;81;21289;-78
2021/04/02 08:22:17;;;;;;;5.22;3.20;;;;;;;8.44;82.20;99680.93;1830394;77;22427;-76
2021/04/02 08:24:47;;;;;;;3.55;3.08;;;;;;;8.37;81.86;99680.73;1802493;78;21021;-78
2021/04/02 08:27:17;;;;;;;4.12;3.35;;;;;;;8.25;81.76;99689.40;1799287;78;22150;-78
2021/04/02 08:29:46;;;;;;;5.40;2.70;;;;;;;8.21;81.92;99690.44;1792765;78;21409;-77
2021/04/02 08:32:15;;;;;;;4.90;3.02;;;;;;;8.15;81.94;99690.67;1792359;78;21092;-78
2021/04/02 08:34:44;;;;;;;4.60;3.00;;;;;;;8.14;81.80;99692.86;1796628;77;21110;-78
2021/04/02 08:37:14;;;;;;;6.25;3.52;;;;;;;8.16;82.25;99692.36;1773226;78;21550;-79
2021/04/02 08:39:41;;;;;;;5.22;3.42;;;;;;;8.22;82.10;99691.28;1778116;78;21199;-78
2021/04/02 08:42:12;;;;;;;5.87;3.62;;;;;;;8.19;82.04;99694.00;1805326;78;21139;-77
2021/04/02 08:44:45;;;;;;;3.67;2.87;;;;;;;8.20;81.84;99701.73;1723514;80;21094;-76
2021/04/02 08:47:18;;;;;;;7.03;3.47;;;;;;;8.15;81.84;99694.58;1730223;81;21183;-78
2021/04/02 08:49:55;;;;;;;5.30;3.77;;;;;;;8.09;81.87;99699.98;1726639;81;21170;-78
2021/04/02 08:52:28;;;;;;;3.77;2.62;;;;;;;8.04;81.88;99695.43;1749498;80;21244;-78
2021/04/02 08:55:06;;;;;;;3.37;2.85;;;;;;;7.86;80.42;99689.14;1741040;80;21199;-78
2021/04/02 08:57:36;;;;;;;3.83;2.80;;;;;;;7.47;80.15;99696.61;1737543;81;21219;-78
2021/04/02 09:00:08;;;;;;;5.65;3.60;;;;;;;7.08;80.07;99691.88;1745453;80;21191;-77
2021/04/02 09:02:37;;;;;;;6.50;3.25;;;;;;;6.99;80.67;99687.00;1737022;80;21179;-77
2021/04/02 09:05:10;;;;;;;4.50;3.42;;;;;;;6.83;80.14;99685.34;1728662;81;21388;-79
2021/04/02 09:14:14;;;;;;;4.92;3.35;;;;;;;7.33;81.22;99664.16;1688437;83;28922;-79
2021/04/02 09:16:49;;;;;;;5.62;3.65;;;;;;;7.43;80.93;99665.16;1665997;84;21024;-78
2021/04/02 09:19:23;;;;;;;5.10;3.95;;;;;;;7.53;80.73;99663.91;1637001;85;21012;-77
2021/04/02 09:21:52;;;;;;;5.90;4.05;;;;;;;7.52;79.91;99656.58;1640714;85;21100;-78
2021/04/02 09:24:21;;;;;;;4.78;3.55;;;;;;;7.35;78.97;99662.37;1638168;85;21123;-79
2021/04/02 09:26:49;;;;;;;4.67;3.37;;;;;;;7.17;79.64;99663.02;1644490;85;21037;-78
2021/04/02 09:29:20;;;;;;;4.45;3.42;;;;;;;7.14;79.05;99656.61;1637673;86;21218;-77
2021/04/02 09:31:47;;;;;;;4.67;3.60;;;;;;;7.11;79.83;99650.23;1636938;85;21218;-79
2021/04/02 09:34:18;;;;;;;9.55;3.92;;;;;;;7.45;80.58;99650.34;1635144;85;21788;-79
2021/04/02 09:36:49;;;;;;;4.83;3.72;;;;;;;7.73;80.34;99644.58;1638172;85;21195;-79
2021/04/02 09:39:24;;;;;;;4.10;3.17;;;;;;;7.57;78.45;99648.63;1669244;84;21203;-79
2021/04/02 09:42:02;;;;;;;4.72;4.00;;;;;;;7.60;78.26;99644.16;1637047;85;21243;-81
2021/04/02 09:44:38;;;;;;;7.85;3.90;;;;;;;7.65;79.28;99641.86;1635624;85;21618;-77
2021/04/02 09:50:09;;;;;;;8.83;4.80;;;;;;;7.85;78.64;99642.81;1780756;78;27930;-76
2021/04/02 09:53:05;;;;;;;6.50;4.25;;;;;;;7.95;78.86;99633.35;1794701;78;26450;-76
2021/04/02 09:55:38;;;;;;;5.12;3.98;;;;;;;8.09;78.84;99641.47;1735207;80;21581;-76
2021/04/02 09:58:22;;;;;;;7.10;4.47;;;;;;;7.86;76.24;99635.84;1744389;80;21670;-75
2021/04/02 10:01:25;;;;;;;;;;;;;;;;;;;;;
2021/04/02 10:04:42;;;;;;;14.77;4.60;;;;;;;7.78;77.41;99623.12;1815109;75;27995;-75
2021/04/02 10:07:09;;;;;;;6.87;3.08;;;;;;;8.12;78.18;99614.05;1810590;78;21058;-78
2021/04/02 10:09:36;;;;;;;7.53;2.90;;;;;;;8.42;76.58;99628.09;1804259;78;21128;-77
2021/04/02 10:12:03;;;;;;;8.38;2.60;;;;;;;8.58;76.92;99622.67;1802224;78;21200;-77
2021/04/02 10:14:30;;;;;;;3.77;2.58;;;;;;;8.80;77.71;99614.83;1814236;77;21040;-77
2021/04/02 10:16:59;;;;;;;13.32;2.90;;;;;;;9.05;77.07;99623.77;1808758;78;21039;-76
2021/04/02 10:19:28;;;;;;;4.25;1.60;;;;;;;9.38;77.79;99626.67;1807029;77;21155;-77
2021/04/02 10:22:07;;;;;;;4.58;1.75;;;;;;;9.57;75.49;99616.25;1815513;77;22190;-76
2021/04/02 10:24:39;;;;;;;5.33;1.50;;;;;;;9.37;75.50;99618.91;1836456;77;21072;-81
2021/04/02 10:27:11;;;;;;;8.05;1.40;;;;;;;9.44;75.11;99606.44;1803625;77;21179;-78
2021/04/02 10:29:39;;;;;;;2.92;1.50;;;;;;;9.47;75.61;99609.78;1793210;78;21124;-77
2021/04/02 10:32:12;;;;;;;10.50;1.37;;;;;;;9.28;75.75;99614.11;1799971;78;21041;-76
2021/04/02 10:34:44;;;;;;;4.78;1.00;;;;;;;9.27;75.14;99594.16;1769944;78;21792;-76
2021/04/02 10:37:14;;;;;;;2.95;1.35;;;;;;;9.31;74.15;99607.45;1809526;77;21650;-79
2021/04/02 10:39:44;;;;;;;2.95;0.80;;;;;;;9.06;70.37;99607.21;1797481;78;21652;-78
2021/04/02 10:42:11;;;;;;;4.65;0.80;;;;;;;8.82;69.80;99615.62;1800162;78;21108;-77
2021/04/02 10:44:38;;;;;;;;;;;;;;;8.41;69.22;99612.11;1806645;78;21206;-77
2021/04/02 10:47:05;;;;;;;1.62;0.70;;;;;;;8.24;70.38;99609.69;1817870;76;21195;-77
2021/04/02 10:49:32;;;;;;;3.70;0.70;;;;;;;7.94;66.55;99600.02;1808827;78;21598;-79
2021/04/02 10:52:00;;;;;;;2.35;0.60;;;;;;;7.58;67.53;99596.59;1813250;78;21148;-79
2021/04/02 10:54:27;;;;;;;;;;;;;;;7.12;60.65;99612.99;1812021;77;21246;-77
2021/04/02 10:56:59;;;;;;;3.12;0.57;;;;;;;6.92;67.45;99611.93;1817111;78;20165;-80
2021/04/02 10:59:28;;;;;;;1.25;0.57;;;;;;;6.74;66.75;99616.43;1806728;77;21291;-78
2021/04/02 11:01:55;;;;;;;2.15;0.50;;;;;;;6.74;61.78;99617.73;1809464;78;21234;-81
2021/04/02 11:04:22;;;;;;;3.52;0.60;;;;;;;6.82;66.31;99623.52;1802376;78;21119;-81
2021/04/02 11:06:49;;;;;;;0.45;0.35;;;;;;;6.68;60.21;99604.96;1797011;79;21187;-82
2021/04/02 11:09:16;;;;;;;1.42;0.55;;;;;;;6.57;63.14;99612.25;1803622;78;21176;-81
2021/04/02 11:11:46;;;;;;;2.00;0.30;;;;;;;6.75;61.36;99609.06;1797464;78;22090;-81
2021/04/02 11:14:14;;;;;;;2.55;0.47;;;;;;;6.77;59.64;99602.05;1800635;79;21021;-81
2021/04/02 11:16:42;;;;;;;2.12;0.50;;;;;;;6.72;60.19;99628.59;1797816;78;21115;-79
2021/04/02 11:19:09;;;;;;;2.58;0.47;;;;;;;6.56;58.67;99623.53;1813114;77;21037;-81
2021/04/02 11:21:36;;;;;;;0.40;0.30;;;;;;;6.83;64.19;99612.22;1813294;77;21161;-80
2021/04/02 11:24:04;;;;;;;6.60;0.42;;;;;;;6.78;59.19;99592.09;1781361;79;22260;-81
2021/04/02 11:26:31;;;;;;;1.82;0.68;;;;;;;6.82;61.79;99593.67;1811376;78;27264;-80
2021/04/02 11:28:58;;;;;;;1.05;0.40;;;;;;;6.86;63.21;99591.38;1781483;79;21026;-80
2021/04/02 11:31:25;;;;;;;2.75;0.70;;;;;;;6.63;58.63;99612.05;1790385;79;21167;-80
2021/04/02 11:33:53;;;;;;;0.55;0.35;;;;;;;6.60;62.86;99597.87;1807803;78;21026;-81
2021/04/02 11:36:20;;;;;;;0.90;0.50;;;;;;;6.61;62.89;99598.27;1790094;78;21142;-78
2021/04/02 11:38:47;;;;;;;2.65;0.68;;;;;;;6.84;64.19;99587.98;1793522;78;21632;-81
2021/04/02 11:41:14;;;;;;;1.40;0.62;;;;;;;7.05;63.66;99594.17;1801501;78;21055;-80
2021/04/02 11:43:41;;;;;;;1.90;0.72;;;;;;;7.04;63.11;99591.19;1818328;78;21171;-81
2021/04/02 11:46:08;;;;;;;11.15;1.80;;;;;;;6.86;61.20;99582.30;1804564;77;21175;-80
2021/04/02 11:48:36;;;;;;;2.20;0.50;;;;;;;7.05;61.26;99582.94;1812061;77;22163;-79
2021/04/02 11:51:03;;;;;;;6.12;0.75;;;;;;;7.16;60.82;99578.22;1800935;78;21206;-79
2021/04/02 11:53:30;;;;;;;4.15;1.30;;;;;;;7.35;63.24;99579.25;1792338;78;21082;-78
2021/04/02 11:55:57;;;;;;;2.83;0.98;;;;;;;7.50;60.28;99583.03;1781837;79;21135;-80
2021/04/02 11:58:26;;;;;;;2.95;0.80;;;;;;;7.59;63.44;99566.28;1779626;79;21162;-80
2021/04/02 12:00:59;;;;;;;2.75;0.70;;;;;;;7.90;64.03;99554.69;1813639;77;22323;-76
2021/04/02 12:03:27;;;;;;;0.70;0.53;;;;;;;7.89;60.92;99563.41;1818058;77;21578;-76
2021/04/02 12:05:54;;;;;;;7.58;0.68;;;;;;;7.98;61.43;99555.23;1810804;77;21076;-76
2021/04/02 12:08:21;;;;;;;2.30;0.98;;;;;;;8.18;63.93;99557.91;1805899;77;21179;-79
2021/04/02 12:10:48;;;;;;;1.60;0.80;;;;;;;8.33;59.17;99545.19;1815871;78;21183;-77
2021/04/02 12:13:15;;;;;;;2.22;0.70;;;;;;;8.20;60.59;99553.47;1861743;75;21198;-77